sensor_id;sensor_type;location;lat;lon;timestamp;temperature;humidity
52509;DHT22;38420;53.150;6.370;2023-06-14T00:00:12;16.60;91.80
52509;DHT22;38420;53.150;6.370;2023-06-14T00:02:39;16.50;92.00
52509;DHT22;38420;53.150;6.370;2023-06-14T00:05:05;16.60;92.10
52509;DHT22;38420;53.150;6.370;2023-06-14T00:07:39;16.50;92.10
52509;DHT22;38420;53.150;6.370;2023-06-14T00:10:09;16.40;92.40
52509;DHT22;38420;53.150;6.370;2023-06-14T00:12:34;16.40;92.50
52509;DHT22;38420;53.150;6.370;2023-06-14T00:15:00;16.40;92.60
52509;DHT22;38420;53.150;6.370;2023-06-14T00:17:29;16.40;92.70
52509;DHT22;38420;53.150;6.370;2023-06-14T00:19:58;16.40;92.90
52509;DHT22;38420;53.150;6.370;2023-06-14T00:22:25;16.40;93.20
52509;DHT22;38420;53.150;6.370;2023-06-14T00:24:51;16.40;93.30
52509;DHT22;38420;53.150;6.370;2023-06-14T00:27:17;16.30;93.60
52509;DHT22;38420;53.150;6.370;2023-06-14T00:29:43;16.30;93.70
52509;DHT22;38420;53.150;6.370;2023-06-14T00:32:08;16.30;93.90
52509;DHT22;38420;53.150;6.370;2023-06-14T00:34:34;16.20;94.10
52509;DHT22;38420;53.150;6.370;2023-06-14T00:37:00;16.20;94.60
52509;DHT22;38420;53.150;6.370;2023-06-14T00:39:26;16.20;94.70
52509;DHT22;38420;53.150;6.370;2023-06-14T00:41:51;16.20;95.00
52509;DHT22;38420;53.150;6.370;2023-06-14T00:44:17;16.20;95.30
52509;DHT22;38420;53.150;6.370;2023-06-14T00:46:45;16.10;95.50
52509;DHT22;38420;53.150;6.370;2023-06-14T00:49:12;16.10;95.70
52509;DHT22;38420;53.150;6.370;2023-06-14T00:51:40;16.00;96.00
52509;DHT22;38420;53.150;6.370;2023-06-14T00:54:06;15.90;96.20
52509;DHT22;38420;53.150;6.370;2023-06-14T00:56:32;15.90;96.40
52509;DHT22;38420;53.150;6.370;2023-06-14T00:58:58;15.90;96.90
52509;DHT22;38420;53.150;6.370;2023-06-14T01:01:24;15.80;96.90
52509;DHT22;38420;53.150;6.370;2023-06-14T01:03:49;15.70;97.10
52509;DHT22;38420;53.150;6.370;2023-06-14T01:06:45;15.70;97.20
52509;DHT22;38420;53.150;6.370;2023-06-14T01:09:27;15.70;97.50
52509;DHT22;38420;53.150;6.370;2023-06-14T01:12:10;15.70;97.60
52509;DHT22;38420;53.150;6.370;2023-06-14T01:14:39;15.60;97.80
52509;DHT22;38420;53.150;6.370;2023-06-14T01:17:07;15.60;98.10
52509;DHT22;38420;53.150;6.370;2023-06-14T01:19:41;15.50;98.30
52509;DHT22;38420;53.150;6.370;2023-06-14T01:22:08;15.60;98.80
52509;DHT22;38420;53.150;6.370;2023-06-14T01:24:34;15.50;98.70
52509;DHT22;38420;53.150;6.370;2023-06-14T01:27:01;15.50;98.90
52509;DHT22;38420;53.150;6.370;2023-06-14T01:29:28;15.50;99.20
52509;DHT22;38420;53.150;6.370;2023-06-14T01:31:58;15.40;99.40
52509;DHT22;38420;53.150;6.370;2023-06-14T01:34:25;15.40;99.60
52509;DHT22;38420;53.150;6.370;2023-06-14T01:36:52;15.40;99.90
52509;DHT22;38420;53.150;6.370;2023-06-14T01:39:20;15.30;99.90
52509;DHT22;38420;53.150;6.370;2023-06-14T01:41:47;15.30;99.90
52509;DHT22;38420;53.150;6.370;2023-06-14T01:44:13;15.30;99.90
52509;DHT22;38420;53.150;6.370;2023-06-14T01:46:41;15.30;99.90
52509;DHT22;38420;53.150;6.370;2023-06-14T01:49:07;15.20;99.90
52509;DHT22;38420;53.150;6.370;2023-06-14T01:51:33;15.20;99.90
52509;DHT22;38420;53.150;6.370;2023-06-14T01:53:59;15.20;99.90
52509;DHT22;38420;53.150;6.370;2023-06-14T01:56:26;15.10;99.90
52509;DHT22;38420;53.150;6.370;2023-06-14T01:58:52;15.10;99.90
52509;DHT22;38420;53.150;6.370;2023-06-14T02:01:19;15.20;99.90
52509;DHT22;38420;53.150;6.370;2023-06-14T02:03:47;15.00;99.90
52509;DHT22;38420;53.150;6.370;2023-06-14T02:06:13;15.00;99.90
52509;DHT22;38420;53.150;6.370;2023-06-14T02:08:41;15.00;99.90
52509;DHT22;38420;53.150;6.370;2023-06-14T02:11:07;15.00;99.90
52509;DHT22;38420;53.150;6.370;2023-06-14T02:13:33;15.00;99.90
52509;DHT22;38420;53.150;6.370;2023-06-14T02:16:00;15.00;99.90
52509;DHT22;38420;53.150;6.370;2023-06-14T02:18:25;15.00;99.90
52509;DHT22;38420;53.150;6.370;2023-06-14T02:20:51;14.90;99.90
52509;DHT22;38420;53.150;6.370;2023-06-14T02:23:17;14.90;99.90
52509;DHT22;38420;53.150;6.370;2023-06-14T02:25:43;14.90;99.90
52509;DHT22;38420;53.150;6.370;2023-06-14T02:28:10;14.90;99.90
52509;DHT22;38420;53.150;6.370;2023-06-14T02:30:36;14.80;99.90
52509;DHT22;38420;53.150;6.370;2023-06-14T02:33:01;14.80;99.90
52509;DHT22;38420;53.150;6.370;2023-06-14T02:35:29;14.80;99.90
52509;DHT22;38420;53.150;6.370;2023-06-14T02:37:55;14.80;99.90
52509;DHT22;38420;53.150;6.370;2023-06-14T02:40:20;14.80;99.90
52509;DHT22;38420;53.150;6.370;2023-06-14T02:42:46;14.70;99.90
52509;DHT22;38420;53.150;6.370;2023-06-14T02:45:12;14.70;99.90
52509;DHT22;38420;53.150;6.370;2023-06-14T02:47:37;14.70;99.90
52509;DHT22;38420;53.150;6.370;2023-06-14T02:50:03;14.70;99.90
52509;DHT22;38420;53.150;6.370;2023-06-14T02:52:29;14.70;99.90
52509;DHT22;38420;53.150;6.370;2023-06-14T02:54:54;14.60;99.90
52509;DHT22;38420;53.150;6.370;2023-06-14T02:57:21;14.60;99.90
52509;DHT22;38420;53.150;6.370;2023-06-14T02:59:47;14.60;99.90
52509;DHT22;38420;53.150;6.370;2023-06-14T03:02:13;14.60;99.90
52509;DHT22;38420;53.150;6.370;2023-06-14T03:04:38;14.60;99.90
52509;DHT22;38420;53.150;6.370;2023-06-14T03:07:05;14.50;99.90
52509;DHT22;38420;53.150;6.370;2023-06-14T03:09:38;14.50;99.90
52509;DHT22;38420;53.150;6.370;2023-06-14T03:12:05;14.50;99.90
52509;DHT22;38420;53.150;6.370;2023-06-14T03:14:32;14.60;99.90
52509;DHT22;38420;53.150;6.370;2023-06-14T03:16:58;14.60;99.90
52509;DHT22;38420;53.150;6.370;2023-06-14T03:19:24;14.60;99.90
52509;DHT22;38420;53.150;6.370;2023-06-14T03:21:52;14.50;99.90
52509;DHT22;38420;53.150;6.370;2023-06-14T03:24:17;14.50;99.90
52509;DHT22;38420;53.150;6.370;2023-06-14T03:26:43;14.40;99.90
52509;DHT22;38420;53.150;6.370;2023-06-14T03:29:08;14.40;99.90
52509;DHT22;38420;53.150;6.370;2023-06-14T03:31:34;14.60;99.90
52509;DHT22;38420;53.150;6.370;2023-06-14T03:34:01;14.40;99.90
52509;DHT22;38420;53.150;6.370;2023-06-14T03:36:27;14.60;99.90
52509;DHT22;38420;53.150;6.370;2023-06-14T03:38:53;14.50;99.90
52509;DHT22;38420;53.150;6.370;2023-06-14T03:41:20;14.50;99.90
52509;DHT22;38420;53.150;6.370;2023-06-14T03:43:46;14.30;99.90
52509;DHT22;38420;53.150;6.370;2023-06-14T03:46:12;14.50;99.90
52509;DHT22;38420;53.150;6.370;2023-06-14T03:48:37;14.30;99.90
52509;DHT22;38420;53.150;6.370;2023-06-14T03:51:04;14.40;99.90
52509;DHT22;38420;53.150;6.370;2023-06-14T03:53:30;14.50;99.90
52509;DHT22;38420;53.150;6.370;2023-06-14T03:55:56;14.50;99.90
52509;DHT22;38420;53.150;6.370;2023-06-14T03:58:22;14.30;99.90
52509;DHT22;38420;53.150;6.370;2023-06-14T04:00:48;14.60;99.90
52509;DHT22;38420;53.150;6.370;2023-06-14T04:03:13;14.50;99.90
52509;DHT22;38420;53.150;6.370;2023-06-14T04:05:41;14.60;99.90
52509;DHT22;38420;53.150;6.370;2023-06-14T04:08:09;14.60;99.90
52509;DHT22;38420;53.150;6.370;2023-06-14T04:10:35;14.60;99.90
52509;DHT22;38420;53.150;6.370;2023-06-14T04:13:01;14.50;99.90
52509;DHT22;38420;53.150;6.370;2023-06-14T04:15:26;14.40;99.90
52509;DHT22;38420;53.150;6.370;2023-06-14T04:17:53;14.60;99.90
52509;DHT22;38420;53.150;6.370;2023-06-14T04:20:23;14.30;99.90
52509;DHT22;38420;53.150;6.370;2023-06-14T04:22:50;14.30;99.90
52509;DHT22;38420;53.150;6.370;2023-06-14T04:25:16;14.70;99.90
52509;DHT22;38420;53.150;6.370;2023-06-14T04:27:42;14.30;99.90
52509;DHT22;38420;53.150;6.370;2023-06-14T04:30:08;14.40;99.90
52509;DHT22;38420;53.150;6.370;2023-06-14T04:32:34;14.70;99.90
52509;DHT22;38420;53.150;6.370;2023-06-14T04:35:04;14.80;99.90
52509;DHT22;38420;53.150;6.370;2023-06-14T04:37:30;14.70;99.90
52509;DHT22;38420;53.150;6.370;2023-06-14T04:39:56;14.50;99.90
52509;DHT22;38420;53.150;6.370;2023-06-14T04:42:22;14.90;99.90
52509;DHT22;38420;53.150;6.370;2023-06-14T04:44:53;14.70;99.90
52509;DHT22;38420;53.150;6.370;2023-06-14T04:47:21;14.90;99.90
52509;DHT22;38420;53.150;6.370;2023-06-14T04:49:47;14.80;99.90
52509;DHT22;38420;53.150;6.370;2023-06-14T04:52:13;14.70;99.90
52509;DHT22;38420;53.150;6.370;2023-06-14T04:54:42;15.00;99.90
52509;DHT22;38420;53.150;6.370;2023-06-14T04:57:11;14.70;99.90
52509;DHT22;38420;53.150;6.370;2023-06-14T04:59:43;15.00;99.90
52509;DHT22;38420;53.150;6.370;2023-06-14T05:02:10;14.90;99.90
52509;DHT22;38420;53.150;6.370;2023-06-14T05:04:37;14.90;99.90
52509;DHT22;38420;53.150;6.370;2023-06-14T05:07:08;14.90;99.90
52509;DHT22;38420;53.150;6.370;2023-06-14T05:09:35;14.90;99.90
52509;DHT22;38420;53.150;6.370;2023-06-14T05:12:01;15.30;99.90
52509;DHT22;38420;53.150;6.370;2023-06-14T05:14:26;15.50;99.90
52509;DHT22;38420;53.150;6.370;2023-06-14T05:16:52;15.20;99.90
52509;DHT22;38420;53.150;6.370;2023-06-14T05:19:19;15.50;99.90
52509;DHT22;38420;53.150;6.370;2023-06-14T05:21:46;15.10;99.90
52509;DHT22;38420;53.150;6.370;2023-06-14T05:24:16;15.50;99.90
52509;DHT22;38420;53.150;6.370;2023-06-14T05:26:43;15.50;99.90
52509;DHT22;38420;53.150;6.370;2023-06-14T05:29:09;15.20;99.90
52509;DHT22;38420;53.150;6.370;2023-06-14T05:31:34;15.30;99.90
52509;DHT22;38420;53.150;6.370;2023-06-14T05:34:00;15.70;99.90
52509;DHT22;38420;53.150;6.370;2023-06-14T05:36:25;15.40;99.90
52509;DHT22;38420;53.150;6.370;2023-06-14T05:38:53;15.40;99.90
52509;DHT22;38420;53.150;6.370;2023-06-14T05:41:25;15.60;99.90
52509;DHT22;38420;53.150;6.370;2023-06-14T05:43:51;15.90;99.90
52509;DHT22;38420;53.150;6.370;2023-06-14T05:46:17;15.60;99.90
52509;DHT22;38420;53.150;6.370;2023-06-14T05:48:47;15.70;99.90
52509;DHT22;38420;53.150;6.370;2023-06-14T05:51:13;15.80;99.90
52509;DHT22;38420;53.150;6.370;2023-06-14T05:53:39;15.70;99.90
52509;DHT22;38420;53.150;6.370;2023-06-14T05:56:05;15.90;99.90
52509;DHT22;38420;53.150;6.370;2023-06-14T05:58:30;15.80;99.90
52509;DHT22;38420;53.150;6.370;2023-06-14T06:00:56;15.90;99.90
52509;DHT22;38420;53.150;6.370;2023-06-14T06:03:23;16.40;99.90
52509;DHT22;38420;53.150;6.370;2023-06-14T06:05:48;16.10;99.90
52509;DHT22;38420;53.150;6.370;2023-06-14T06:08:14;16.20;99.90
52509;DHT22;38420;53.150;6.370;2023-06-14T06:10:42;16.20;99.90
52509;DHT22;38420;53.150;6.370;2023-06-14T06:13:07;16.50;99.90
52509;DHT22;38420;53.150;6.370;2023-06-14T06:15:33;16.60;99.90
52509;DHT22;38420;53.150;6.370;2023-06-14T06:17:58;16.60;99.90
52509;DHT22;38420;53.150;6.370;2023-06-14T06:20:24;16.60;99.90
52509;DHT22;38420;53.150;6.370;2023-06-14T06:22:53;16.90;99.90
52509;DHT22;38420;53.150;6.370;2023-06-14T06:25:19;16.90;99.90
52509;DHT22;38420;53.150;6.370;2023-06-14T06:27:45;17.00;99.90
52509;DHT22;38420;53.150;6.370;2023-06-14T06:30:11;17.10;99.90
52509;DHT22;38420;53.150;6.370;2023-06-14T06:32:36;17.10;99.90
52509;DHT22;38420;53.150;6.370;2023-06-14T06:35:02;17.10;99.90
52509;DHT22;38420;53.150;6.370;2023-06-14T06:37:31;17.30;99.90
52509;DHT22;38420;53.150;6.370;2023-06-14T06:39:57;17.30;99.90
52509;DHT22;38420;53.150;6.370;2023-06-14T06:42:22;17.40;99.90
52509;DHT22;38420;53.150;6.370;2023-06-14T06:44:48;17.60;99.90
52509;DHT22;38420;53.150;6.370;2023-06-14T06:47:13;17.60;99.90
52509;DHT22;38420;53.150;6.370;2023-06-14T06:49:39;17.70;99.90
52509;DHT22;38420;53.150;6.370;2023-06-14T06:52:06;17.80;99.90
52509;DHT22;38420;53.150;6.370;2023-06-14T06:54:33;18.00;99.90
52509;DHT22;38420;53.150;6.370;2023-06-14T06:56:58;18.00;99.90
52509;DHT22;38420;53.150;6.370;2023-06-14T06:59:24;18.20;99.90
52509;DHT22;38420;53.150;6.370;2023-06-14T07:01:50;18.20;99.90
52509;DHT22;38420;53.150;6.370;2023-06-14T07:04:16;18.30;99.90
52509;DHT22;38420;53.150;6.370;2023-06-14T07:06:42;18.40;99.90
52509;DHT22;38420;53.150;6.370;2023-06-14T07:09:08;18.50;99.90
52509;DHT22;38420;53.150;6.370;2023-06-14T07:11:38;18.50;99.90
52509;DHT22;38420;53.150;6.370;2023-06-14T07:14:04;18.60;99.90
52509;DHT22;38420;53.150;6.370;2023-06-14T07:16:30;18.90;99.90
52509;DHT22;38420;53.150;6.370;2023-06-14T07:18:55;19.00;99.90
52509;DHT22;38420;53.150;6.370;2023-06-14T07:21:21;19.10;99.90
52509;DHT22;38420;53.150;6.370;2023-06-14T07:23:47;19.20;99.90
52509;DHT22;38420;53.150;6.370;2023-06-14T07:26:12;19.30;99.90
52509;DHT22;38420;53.150;6.370;2023-06-14T07:28:38;19.40;99.90
52509;DHT22;38420;53.150;6.370;2023-06-14T07:31:04;19.60;99.90
52509;DHT22;38420;53.150;6.370;2023-06-14T07:33:29;19.70;99.90
52509;DHT22;38420;53.150;6.370;2023-06-14T07:35:55;19.80;99.90
52509;DHT22;38420;53.150;6.370;2023-06-14T07:38:21;20.00;99.90
52509;DHT22;38420;53.150;6.370;2023-06-14T07:40:46;20.10;99.90
52509;DHT22;38420;53.150;6.370;2023-06-14T07:43:12;20.60;99.90
52509;DHT22;38420;53.150;6.370;2023-06-14T07:45:38;21.50;99.90
52509;DHT22;38420;53.150;6.370;2023-06-14T07:48:03;22.60;99.90
52509;DHT22;38420;53.150;6.370;2023-06-14T07:50:29;23.50;99.90
52509;DHT22;38420;53.150;6.370;2023-06-14T07:52:55;24.10;98.70
52509;DHT22;38420;53.150;6.370;2023-06-14T07:55:21;24.80;97.70
52509;DHT22;38420;53.150;6.370;2023-06-14T07:57:47;25.40;96.20
52509;DHT22;38420;53.150;6.370;2023-06-14T08:00:13;25.90;95.70
52509;DHT22;38420;53.150;6.370;2023-06-14T08:02:44;26.30;94.10
52509;DHT22;38420;53.150;6.370;2023-06-14T08:05:10;26.80;92.10
52509;DHT22;38420;53.150;6.370;2023-06-14T08:07:37;26.60;92.00
52509;DHT22;38420;53.150;6.370;2023-06-14T08:10:04;26.90;91.50
52509;DHT22;38420;53.150;6.370;2023-06-14T08:12:30;27.00;90.90
52509;DHT22;38420;53.150;6.370;2023-06-14T08:14:55;27.30;90.50
52509;DHT22;38420;53.150;6.370;2023-06-14T08:17:21;27.40;90.20
52509;DHT22;38420;53.150;6.370;2023-06-14T08:19:46;27.50;89.70
52509;DHT22;38420;53.150;6.370;2023-06-14T08:22:12;27.90;88.70
52509;DHT22;38420;53.150;6.370;2023-06-14T08:24:38;28.50;88.10
52509;DHT22;38420;53.150;6.370;2023-06-14T08:27:05;29.10;86.00
52509;DHT22;38420;53.150;6.370;2023-06-14T08:29:31;29.30;83.30
52509;DHT22;38420;53.150;6.370;2023-06-14T08:31:57;29.70;81.80
52509;DHT22;38420;53.150;6.370;2023-06-14T08:34:23;29.80;82.30
52509;DHT22;38420;53.150;6.370;2023-06-14T08:36:52;29.80;80.10
52509;DHT22;38420;53.150;6.370;2023-06-14T08:39:17;29.30;78.80
52509;DHT22;38420;53.150;6.370;2023-06-14T08:41:46;29.40;79.10
52509;DHT22;38420;53.150;6.370;2023-06-14T08:44:12;29.50;78.40
52509;DHT22;38420;53.150;6.370;2023-06-14T08:46:38;29.70;78.70
52509;DHT22;38420;53.150;6.370;2023-06-14T08:49:04;29.70;78.20
52509;DHT22;38420;53.150;6.370;2023-06-14T08:51:32;29.40;77.90
52509;DHT22;38420;53.150;6.370;2023-06-14T08:54:02;29.40;78.60
52509;DHT22;38420;53.150;6.370;2023-06-14T08:56:29;29.50;78.50
52509;DHT22;38420;53.150;6.370;2023-06-14T08:58:57;29.80;76.60
52509;DHT22;38420;53.150;6.370;2023-06-14T09:01:23;29.90;75.50
52509;DHT22;38420;53.150;6.370;2023-06-14T09:03:50;29.90;74.50
52509;DHT22;38420;53.150;6.370;2023-06-14T09:06:16;29.90;73.50
52509;DHT22;38420;53.150;6.370;2023-06-14T09:08:45;29.80;73.30
52509;DHT22;38420;53.150;6.370;2023-06-14T09:11:13;29.50;74.40
52509;DHT22;38420;53.150;6.370;2023-06-14T09:13:40;29.30;74.30
52509;DHT22;38420;53.150;6.370;2023-06-14T09:16:06;28.90;74.00
52509;DHT22;38420;53.150;6.370;2023-06-14T09:18:41;28.50;75.20
52509;DHT22;38420;53.150;6.370;2023-06-14T09:21:09;28.00;75.70
52509;DHT22;38420;53.150;6.370;2023-06-14T09:23:39;27.70;75.70
52509;DHT22;38420;53.150;6.370;2023-06-14T09:26:19;27.40;75.40
52509;DHT22;38420;53.150;6.370;2023-06-14T09:28:49;27.10;75.60
52509;DHT22;38420;53.150;6.370;2023-06-14T09:31:17;26.80;76.60
52509;DHT22;38420;53.150;6.370;2023-06-14T09:33:50;26.80;75.80
52509;DHT22;38420;53.150;6.370;2023-06-14T09:36:25;26.60;77.00
52509;DHT22;38420;53.150;6.370;2023-06-14T09:38:58;26.50;76.10
52509;DHT22;38420;53.150;6.370;2023-06-14T09:41:40;26.30;77.00
52509;DHT22;38420;53.150;6.370;2023-06-14T09:44:07;26.20;76.80
52509;DHT22;38420;53.150;6.370;2023-06-14T09:46:34;26.20;78.20
52509;DHT22;38420;53.150;6.370;2023-06-14T09:49:01;26.10;77.30
52509;DHT22;38420;53.150;6.370;2023-06-14T09:51:27;26.00;76.50
52509;DHT22;38420;53.150;6.370;2023-06-14T09:53:59;25.90;78.20
52509;DHT22;38420;53.150;6.370;2023-06-14T09:56:31;25.90;77.50
52509;DHT22;38420;53.150;6.370;2023-06-14T09:58:59;25.80;77.10
52509;DHT22;38420;53.150;6.370;2023-06-14T10:01:27;25.70;77.40
52509;DHT22;38420;53.150;6.370;2023-06-14T10:03:59;25.70;77.10
52509;DHT22;38420;53.150;6.370;2023-06-14T10:06:27;25.60;77.30
52509;DHT22;38420;53.150;6.370;2023-06-14T10:08:57;25.60;77.60
52509;DHT22;38420;53.150;6.370;2023-06-14T10:11:23;25.70;79.30
52509;DHT22;38420;53.150;6.370;2023-06-14T10:13:50;25.80;79.10
52509;DHT22;38420;53.150;6.370;2023-06-14T10:16:32;25.80;78.50
52509;DHT22;38420;53.150;6.370;2023-06-14T10:19:27;25.80;78.50
52509;DHT22;38420;53.150;6.370;2023-06-14T10:24:32;25.60;78.00
52509;DHT22;38420;53.150;6.370;2023-06-14T10:26:58;25.50;78.90
52509;DHT22;38420;53.150;6.370;2023-06-14T10:29:25;25.60;78.90
52509;DHT22;38420;53.150;6.370;2023-06-14T10:31:56;25.60;78.30
52509;DHT22;38420;53.150;6.370;2023-06-14T10:34:26;25.70;78.30
52509;DHT22;38420;53.150;6.370;2023-06-14T10:37:05;25.80;78.80
52509;DHT22;38420;53.150;6.370;2023-06-14T10:39:37;25.90;78.60
52509;DHT22;38420;53.150;6.370;2023-06-14T10:42:03;25.90;78.50
52509;DHT22;38420;53.150;6.370;2023-06-14T10:44:31;25.80;78.20
52509;DHT22;38420;53.150;6.370;2023-06-14T10:47:01;25.70;77.70
52509;DHT22;38420;53.150;6.370;2023-06-14T10:49:44;25.80;77.90
52509;DHT22;38420;53.150;6.370;2023-06-14T10:52:14;25.80;77.70
52509;DHT22;38420;53.150;6.370;2023-06-14T10:57:33;25.80;77.80
52509;DHT22;38420;53.150;6.370;2023-06-14T10:59:59;25.90;77.40
52509;DHT22;38420;53.150;6.370;2023-06-14T11:05:28;26.00;77.80
52509;DHT22;38420;53.150;6.370;2023-06-14T11:08:18;26.10;79.80
52509;DHT22;38420;53.150;6.370;2023-06-14T11:10:50;26.20;78.90
52509;DHT22;38420;53.150;6.370;2023-06-14T11:13:17;26.20;78.90
52509;DHT22;38420;53.150;6.370;2023-06-14T11:15:47;26.20;79.20
52509;DHT22;38420;53.150;6.370;2023-06-14T11:18:13;25.80;78.10
52509;DHT22;38420;53.150;6.370;2023-06-14T11:20:40;25.80;78.50
52509;DHT22;38420;53.150;6.370;2023-06-14T11:23:06;25.80;78.40
52509;DHT22;38420;53.150;6.370;2023-06-14T11:25:32;25.80;78.50
52509;DHT22;38420;53.150;6.370;2023-06-14T11:27:58;25.60;78.60
52509;DHT22;38420;53.150;6.370;2023-06-14T11:30:24;25.50;78.80
52509;DHT22;38420;53.150;6.370;2023-06-14T11:32:54;25.60;79.40
52509;DHT22;38420;53.150;6.370;2023-06-14T11:35:24;25.60;79.20
52509;DHT22;38420;53.150;6.370;2023-06-14T11:37:54;25.60;79.30
52509;DHT22;38420;53.150;6.370;2023-06-14T11:40:24;25.60;79.10
52509;DHT22;38420;53.150;6.370;2023-06-14T11:42:54;25.70;79.10
52509;DHT22;38420;53.150;6.370;2023-06-14T11:45:23;25.90;78.30
52509;DHT22;38420;53.150;6.370;2023-06-14T11:47:48;26.00;79.00
52509;DHT22;38420;53.150;6.370;2023-06-14T11:50:14;26.00;79.00
52509;DHT22;38420;53.150;6.370;2023-06-14T11:52:39;26.00;78.70
52509;DHT22;38420;53.150;6.370;2023-06-14T11:55:06;25.90;78.20
52509;DHT22;38420;53.150;6.370;2023-06-14T11:57:35;25.80;77.80
52509;DHT22;38420;53.150;6.370;2023-06-14T12:00:06;25.80;77.80
52509;DHT22;38420;53.150;6.370;2023-06-14T12:02:38;25.80;77.50
52509;DHT22;38420;53.150;6.370;2023-06-14T12:05:06;25.70;77.10
52509;DHT22;38420;53.150;6.370;2023-06-14T12:07:39;25.60;77.40
52509;DHT22;38420;53.150;6.370;2023-06-14T12:10:08;25.70;78.80
52509;DHT22;38420;53.150;6.370;2023-06-14T12:12:37;25.80;78.30
52509;DHT22;38420;53.150;6.370;2023-06-14T12:15:04;25.90;77.70
52509;DHT22;38420;53.150;6.370;2023-06-14T12:17:35;26.10;77.10
52509;DHT22;38420;53.150;6.370;2023-06-14T12:20:12;26.20;77.50
52509;DHT22;38420;53.150;6.370;2023-06-14T12:22:57;26.30;77.30
52509;DHT22;38420;53.150;6.370;2023-06-14T12:25:27;26.50;76.70
52509;DHT22;38420;53.150;6.370;2023-06-14T12:27:57;26.50;78.20
52509;DHT22;38420;53.150;6.370;2023-06-14T12:30:22;26.60;77.40
52509;DHT22;38420;53.150;6.370;2023-06-14T12:32:48;26.60;76.00
52509;DHT22;38420;53.150;6.370;2023-06-14T12:35:15;26.40;76.00
52509;DHT22;38420;53.150;6.370;2023-06-14T12:37:41;26.40;75.90
52509;DHT22;38420;53.150;6.370;2023-06-14T12:40:07;26.40;75.50
52509;DHT22;38420;53.150;6.370;2023-06-14T12:42:33;26.40;76.40
52509;DHT22;38420;53.150;6.370;2023-06-14T12:45:02;26.50;75.60
52509;DHT22;38420;53.150;6.370;2023-06-14T12:47:28;26.50;75.40
52509;DHT22;38420;53.150;6.370;2023-06-14T12:49:53;26.40;75.70
52509;DHT22;38420;53.150;6.370;2023-06-14T12:52:19;26.30;76.10
52509;DHT22;38420;53.150;6.370;2023-06-14T12:54:45;26.30;75.90
52509;DHT22;38420;53.150;6.370;2023-06-14T12:57:10;26.30;75.90
52509;DHT22;38420;53.150;6.370;2023-06-14T12:59:36;26.40;76.40
52509;DHT22;38420;53.150;6.370;2023-06-14T13:02:16;26.40;75.90
52509;DHT22;38420;53.150;6.370;2023-06-14T13:04:42;26.40;75.50
52509;DHT22;38420;53.150;6.370;2023-06-14T13:07:08;26.50;75.90
52509;DHT22;38420;53.150;6.370;2023-06-14T13:09:36;26.50;75.20
52509;DHT22;38420;53.150;6.370;2023-06-14T13:12:01;26.30;75.50
52509;DHT22;38420;53.150;6.370;2023-06-14T13:14:27;26.20;75.50
52509;DHT22;38420;53.150;6.370;2023-06-14T13:16:53;26.10;75.20
52509;DHT22;38420;53.150;6.370;2023-06-14T13:19:18;26.20;75.70
52509;DHT22;38420;53.150;6.370;2023-06-14T13:21:44;26.30;76.20
52509;DHT22;38420;53.150;6.370;2023-06-14T13:24:09;26.40;75.70
52509;DHT22;38420;53.150;6.370;2023-06-14T13:26:35;26.50;75.20
52509;DHT22;38420;53.150;6.370;2023-06-14T13:29:01;26.60;76.00
52509;DHT22;38420;53.150;6.370;2023-06-14T13:31:26;26.70;75.70
52509;DHT22;38420;53.150;6.370;2023-06-14T13:33:52;26.80;76.50
52509;DHT22;38420;53.150;6.370;2023-06-14T13:36:17;26.90;74.80
52509;DHT22;38420;53.150;6.370;2023-06-14T13:38:43;26.80;74.90
52509;DHT22;38420;53.150;6.370;2023-06-14T13:41:09;26.80;74.60
52509;DHT22;38420;53.150;6.370;2023-06-14T13:43:34;26.60;74.10
52509;DHT22;38420;53.150;6.370;2023-06-14T13:46:00;26.60;75.40
52509;DHT22;38420;53.150;6.370;2023-06-14T13:48:26;26.70;75.30
52509;DHT22;38420;53.150;6.370;2023-06-14T13:50:51;26.80;74.90
52509;DHT22;38420;53.150;6.370;2023-06-14T13:53:17;26.80;75.00
52509;DHT22;38420;53.150;6.370;2023-06-14T13:55:43;26.50;74.50
52509;DHT22;38420;53.150;6.370;2023-06-14T13:58:08;26.40;74.60
52509;DHT22;38420;53.150;6.370;2023-06-14T14:00:34;26.20;74.50
52509;DHT22;38420;53.150;6.370;2023-06-14T14:03:03;26.20;74.30
52509;DHT22;38420;53.150;6.370;2023-06-14T14:05:28;26.10;74.40
52509;DHT22;38420;53.150;6.370;2023-06-14T14:07:56;26.00;74.60
52509;DHT22;38420;53.150;6.370;2023-06-14T14:10:23;26.00;75.30
52509;DHT22;38420;53.150;6.370;2023-06-14T14:12:50;25.80;74.50
52509;DHT22;38420;53.150;6.370;2023-06-14T14:15:16;25.70;74.60
52509;DHT22;38420;53.150;6.370;2023-06-14T14:17:42;25.70;74.60
52509;DHT22;38420;53.150;6.370;2023-06-14T14:20:08;25.70;74.70
52509;DHT22;38420;53.150;6.370;2023-06-14T14:22:34;25.70;75.60
52509;DHT22;38420;53.150;6.370;2023-06-14T14:25:00;25.70;75.90
52509;DHT22;38420;53.150;6.370;2023-06-14T14:27:26;25.70;76.00
52509;DHT22;38420;53.150;6.370;2023-06-14T14:29:51;25.80;76.00
52509;DHT22;38420;53.150;6.370;2023-06-14T14:32:17;25.90;75.40
52509;DHT22;38420;53.150;6.370;2023-06-14T14:34:42;26.00;75.50
52509;DHT22;38420;53.150;6.370;2023-06-14T14:37:08;26.20;75.40
52509;DHT22;38420;53.150;6.370;2023-06-14T14:39:34;26.30;75.80
52509;DHT22;38420;53.150;6.370;2023-06-14T14:42:00;26.60;75.20
52509;DHT22;38420;53.150;6.370;2023-06-14T14:44:25;26.80;74.80
52509;DHT22;38420;53.150;6.370;2023-06-14T14:46:51;27.00;73.60
52509;DHT22;38420;53.150;6.370;2023-06-14T14:49:16;26.90;73.90
52509;DHT22;38420;53.150;6.370;2023-06-14T14:51:42;26.70;73.90
52509;DHT22;38420;53.150;6.370;2023-06-14T14:54:08;26.60;74.30
52509;DHT22;38420;53.150;6.370;2023-06-14T14:56:33;26.40;74.80
52509;DHT22;38420;53.150;6.370;2023-06-14T14:59:00;26.10;74.00
52509;DHT22;38420;53.150;6.370;2023-06-14T15:01:26;26.00;73.70
52509;DHT22;38420;53.150;6.370;2023-06-14T15:03:51;25.80;73.70
52509;DHT22;38420;53.150;6.370;2023-06-14T15:06:17;25.70;73.70
52509;DHT22;38420;53.150;6.370;2023-06-14T15:08:43;25.60;73.90
52509;DHT22;38420;53.150;6.370;2023-06-14T15:11:09;25.60;74.70
52509;DHT22;38420;53.150;6.370;2023-06-14T15:13:34;25.70;74.80
52509;DHT22;38420;53.150;6.370;2023-06-14T15:16:00;25.70;74.40
52509;DHT22;38420;53.150;6.370;2023-06-14T15:18:26;25.80;73.90
52509;DHT22;38420;53.150;6.370;2023-06-14T15:20:52;25.90;74.00
52509;DHT22;38420;53.150;6.370;2023-06-14T15:23:17;25.90;74.20
52509;DHT22;38420;53.150;6.370;2023-06-14T15:25:46;25.80;74.90
52509;DHT22;38420;53.150;6.370;2023-06-14T15:28:14;25.80;74.90
52509;DHT22;38420;53.150;6.370;2023-06-14T15:30:40;25.70;75.00
52509;DHT22;38420;53.150;6.370;2023-06-14T15:33:06;25.60;75.40
52509;DHT22;38420;53.150;6.370;2023-06-14T15:35:32;25.50;75.60
52509;DHT22;38420;53.150;6.370;2023-06-14T15:37:57;25.40;75.50